Time;durP1;ratioP1;P1;durP2;ratioP2;P2;SDS_P1;SDS_P2;PMS_P1;PMS_P2;Temp;Humidity;BMP_temperature;BMP_pressure;BME280_temperature;BME280_humidity;BME280_pressure;Samples;Min_cycle;Max_cycle;Signal;HPM_P1;HPM_P2
2022/10/04 00:00:25;;;;;;;12.23;8.75;;;12.40;99.90;;;;;;5074420;28;20043;-27
2022/10/04 00:02:58;;;;;;;13.60;8.77;;;12.30;99.90;;;;;;5074029;28;20044;-27
2022/10/04 00:05:25;;;;;;;11.13;8.73;;;12.30;99.90;;;;;;5074122;28;20028;-27
2022/10/04 00:07:57;;;;;;;16.40;8.75;;;12.20;99.90;;;;;;5072171;28;20040;-27
2022/10/04 00:10:30;;;;;;;11.43;7.78;;;12.20;99.90;;;;;;5073801;28;20054;-27
2022/10/04 00:12:59;;;;;;;11.93;7.88;;;12.20;99.90;;;;;;5088694;28;20051;-28
2022/10/04 00:15:27;;;;;;;8.60;7.72;;;12.20;99.90;;;;;;5081690;28;20066;-27
2022/10/04 00:18:11;;;;;;;15.77;9.82;;;12.20;99.90;;;;;;5068278;28;20044;-27
2022/10/04 00:21:03;;;;;;;;;;;12.20;99.90;;;;;;5074681;28;20077;-27
2022/10/04 00:23:35;;;;;;;11.50;8.02;;;12.20;99.90;;;;;;5073830;28;19923;-27
2022/10/04 00:26:04;;;;;;;10.60;8.23;;;12.20;99.90;;;;;;5066681;28;20170;-27
2022/10/04 00:28:36;;;;;;;12.43;8.70;;;12.20;99.90;;;;;;5061445;28;20040;-27
2022/10/04 00:31:05;;;;;;;11.98;8.27;;;12.20;99.90;;;;;;5078164;28;20434;-27
2022/10/04 00:33:41;;;;;;;16.50;9.25;;;12.20;99.90;;;;;;5078043;28;20040;-27
2022/10/04 00:36:28;;;;;;;16.05;9.35;;;12.20;99.90;;;;;;5078295;28;20481;-27
2022/10/04 00:39:03;;;;;;;16.52;9.15;;;12.20;99.90;;;;;;5077868;28;20036;-27
2022/10/04 00:41:52;;;;;;;16.23;9.15;;;12.20;99.90;;;;;;5077999;28;20053;-27
2022/10/04 00:44:21;;;;;;;10.20;9.07;;;12.20;99.90;;;;;;5075778;28;20106;-27
2022/10/04 00:46:48;;;;;;;17.38;9.73;;;12.10;99.90;;;;;;5057384;28;20047;-27
2022/10/04 00:49:19;;;;;;;11.73;8.82;;;12.10;99.90;;;;;;5058046;28;20115;-27
2022/10/04 00:52:06;;;;;;;10.55;8.82;;;12.00;99.90;;;;;;5077718;28;20046;-27
2022/10/04 00:54:46;;;;;;;11.93;9.30;;;12.00;99.90;;;;;;5073964;28;20158;-27
2022/10/04 00:57:21;;;;;;;16.33;10.25;;;12.00;99.90;;;;;;5057726;28;20486;-27
2022/10/04 00:59:53;;;;;;;13.05;9.23;;;12.00;99.90;;;;;;5072273;28;20117;-27
2022/10/04 01:02:25;;;;;;;19.67;9.90;;;12.00;99.90;;;;;;5077045;28;20032;-27
2022/10/04 01:05:02;;;;;;;13.55;10.55;;;12.10;99.90;;;;;;5077544;28;20067;-27
2022/10/04 01:07:32;;;;;;;14.77;9.85;;;12.00;99.90;;;;;;5077579;28;20039;-27
2022/10/04 01:10:12;;;;;;;14.50;9.95;;;12.00;99.90;;;;;;5059458;28;20397;-27
2022/10/04 01:12:53;;;;;;;12.02;9.85;;;12.00;99.90;;;;;;5040724;28;20401;-27
2022/10/04 01:15:25;;;;;;;15.10;10.52;;;12.00;99.90;;;;;;5057791;28;20444;-27
2022/10/04 01:18:28;;;;;;;13.57;9.50;;;12.00;99.90;;;;;;5077280;28;20044;-27
2022/10/04 01:20:56;;;;;;;15.23;10.82;;;12.00;99.90;;;;;;5063067;28;20106;-27
2022/10/04 01:23:37;;;;;;;12.23;10.65;;;12.00;99.90;;;;;;5070642;28;20047;-27
2022/10/04 01:26:25;;;;;;;15.93;10.85;;;12.00;99.90;;;;;;5057293;28;20497;-27
2022/10/04 01:28:52;;;;;;;15.82;10.80;;;11.90;99.90;;;;;;5061843;28;20043;-27
2022/10/04 01:31:18;;;;;;;11.32;9.95;;;11.90;99.90;;;;;;5077206;28;20036;-27
2022/10/04 01:33:45;;;;;;;14.23;11.55;;;11.90;99.90;;;;;;5076704;28;20044;-27
2022/10/04 01:36:11;;;;;;;16.13;11.68;;;11.90;99.90;;;;;;5076658;28;20503;-27
2022/10/04 01:38:37;;;;;;;14.73;11.23;;;11.90;99.90;;;;;;5076346;28;20036;-27
2022/10/04 01:41:06;;;;;;;15.90;11.32;;;12.00;99.90;;;;;;5076701;28;20040;-27
2022/10/04 01:43:36;;;;;;;14.07;11.00;;;12.00;99.90;;;;;;5082925;28;20051;-27
2022/10/04 01:46:10;;;;;;;14.57;11.15;;;12.00;99.90;;;;;;5059417;28;20037;-27
2022/10/04 01:48:40;;;;;;;18.67;12.00;;;12.00;99.90;;;;;;5076793;28;20111;-27
2022/10/04 01:51:21;;;;;;;16.25;11.30;;;12.00;99.90;;;;;;5063741;28;20094;-27
2022/10/04 01:53:57;;;;;;;16.70;12.02;;;12.00;99.90;;;;;;5070380;28;20424;-27
2022/10/04 01:56:26;;;;;;;12.77;11.48;;;12.00;99.90;;;;;;5056160;28;20045;-27
2022/10/04 01:59:06;;;;;;;16.77;13.32;;;12.00;99.90;;;;;;5057843;28;20461;-27
2022/10/04 02:01:39;;;;;;;12.40;11.30;;;12.10;99.90;;;;;;5056292;28;20047;-27
2022/10/04 02:04:30;;;;;;;16.02;12.90;;;12.10;99.90;;;;;;5068254;28;20481;-27
2022/10/04 02:06:58;;;;;;;15.23;12.07;;;12.10;99.90;;;;;;5057357;28;20049;-27
2022/10/04 02:09:28;;;;;;;17.58;13.98;;;12.00;99.90;;;;;;5076437;28;20047;-27
2022/10/04 02:11:57;;;;;;;16.25;12.20;;;12.00;99.90;;;;;;5067869;28;20371;-27
2022/10/04 02:14:26;;;;;;;20.60;13.40;;;12.00;99.90;;;;;;5056093;28;20036;-27
2022/10/04 02:16:53;;;;;;;14.07;12.07;;;12.00;99.90;;;;;;5056214;28;20040;-27
2022/10/04 02:19:26;;;;;;;13.48;11.93;;;12.00;99.90;;;;;;5056201;28;20043;-27
2022/10/04 02:21:54;;;;;;;15.82;13.13;;;11.90;99.90;;;;;;5068764;28;20393;-27
2022/10/04 02:24:20;;;;;;;13.57;12.15;;;11.90;99.90;;;;;;5062121;28;20032;-27
2022/10/04 02:26:51;;;;;;;18.77;13.77;;;11.90;99.90;;;;;;5075942;28;20097;-27
2022/10/04 02:29:18;;;;;;;15.68;12.25;;;11.90;99.90;;;;;;5075966;28;20401;-27
2022/10/04 02:34:30;;;;;;;13.27;11.23;;;11.80;99.90;;;;;;5092883;28;20501;-27
2022/10/04 02:36:56;;;;;;;16.02;12.15;;;11.80;99.90;;;;;;5075955;28;20092;-27
2022/10/04 02:39:33;;;;;;;13.70;12.02;;;11.80;99.90;;;;;;5072747;28;20363;-27
2022/10/04 02:42:10;;;;;;;14.35;11.60;;;11.80;99.90;;;;;;5065934;28;20039;-27
2022/10/04 02:44:45;;;;;;;17.58;12.50;;;11.70;99.90;;;;;;5071442;28;20420;-27
2022/10/04 02:47:13;;;;;;;16.77;11.77;;;11.70;99.90;;;;;;5055109;28;20394;-27
2022/10/04 02:49:48;;;;;;;16.42;11.10;;;11.60;99.90;;;;;;5055266;28;20098;-27
2022/10/04 02:52:37;;;;;;;13.55;11.20;;;11.60;99.90;;;;;;5055280;28;20044;-27
2022/10/04 02:55:23;;;;;;;12.73;11.23;;;11.50;99.90;;;;;;5055164;28;20083;-26
2022/10/04 02:57:51;;;;;;;13.90;10.80;;;11.40;99.90;;;;;;5055451;28;20041;-27
2022/10/04 03:00:18;;;;;;;15.18;10.98;;;11.30;99.90;;;;;;5072187;28;20465;-27
2022/10/04 03:03:15;;;;;;;17.73;11.57;;;11.30;99.90;;;;;;5038550;28;20048;-27
2022/10/04 03:05:55;;;;;;;16.92;11.80;;;11.20;99.90;;;;;;5064990;28;20072;-27
2022/10/04 03:08:21;;;;;;;18.58;11.73;;;11.10;99.90;;;;;;5055329;28;20539;-27
2022/10/04 03:10:47;;;;;;;16.10;11.45;;;11.00;99.90;;;;;;5068262;28;20397;-27
2022/10/04 03:13:14;;;;;;;16.67;12.63;;;11.00;99.90;;;;;;5074549;28;20046;-27
2022/10/04 03:15:41;;;;;;;12.98;11.38;;;10.90;99.90;;;;;;5074752;28;20086;-27
2022/10/04 03:18:09;;;;;;;13.48;11.48;;;10.80;99.90;;;;;;5057689;28;20039;-27
2022/10/04 03:20:37;;;;;;;15.85;11.80;;;10.80;99.90;;;;;;5067893;28;20039;-29
2022/10/04 03:23:04;;;;;;;15.73;13.23;;;10.70;99.90;;;;;;5063393;28;20075;-29
2022/10/04 03:25:41;;;;;;;12.77;11.52;;;10.70;99.90;;;;;;5073276;28;20036;-29
2022/10/04 03:28:07;;;;;;;16.55;12.48;;;10.60;99.90;;;;;;5071639;28;20078;-29
2022/10/04 03:30:35;;;;;;;15.50;12.10;;;10.60;99.90;;;;;;5073549;28;20356;-29
2022/10/04 03:33:01;;;;;;;16.60;12.80;;;10.50;99.90;;;;;;5068126;28;20533;-29
2022/10/04 03:35:29;;;;;;;15.07;12.57;;;10.50;99.90;;;;;;5065016;28;20123;-29
2022/10/04 03:37:57;;;;;;;15.57;11.45;;;10.50;99.90;;;;;;5057272;28;20096;-29
2022/10/04 03:40:27;;;;;;;14.30;11.35;;;10.50;99.90;;;;;;5068790;28;20100;-29
2022/10/04 03:42:54;;;;;;;16.65;12.93;;;10.40;99.90;;;;;;5070736;28;20405;-29
2022/10/04 03:45:22;;;;;;;16.05;12.38;;;10.40;99.90;;;;;;5067053;28;20569;-29
2022/10/04 03:47:52;;;;;;;15.40;12.88;;;10.40;99.90;;;;;;5073210;28;20036;-29
2022/10/04 03:50:25;;;;;;;15.52;12.75;;;10.40;99.90;;;;;;5054902;28;20106;-29
2022/10/04 03:52:57;;;;;;;14.05;12.55;;;10.40;99.90;;;;;;5063413;28;20119;-29
2022/10/04 03:55:30;;;;;;;14.80;13.25;;;10.30;99.90;;;;;;5074458;28;20040;-29
2022/10/04 03:57:57;;;;;;;14.80;11.77;;;10.30;99.90;;;;;;5092774;28;20040;-29
2022/10/04 04:00:23;;;;;;;20.20;14.00;;;10.30;99.90;;;;;;5066527;28;20093;-29
2022/10/04 04:02:58;;;;;;;17.13;13.18;;;10.30;99.90;;;;;;5073682;28;20032;-29
2022/10/04 04:05:39;;;;;;;14.52;12.50;;;10.30;99.90;;;;;;5059797;28;20047;-29
2022/10/04 04:08:25;;;;;;;15.73;13.50;;;10.20;99.90;;;;;;5068886;28;20076;-29
2022/10/04 04:10:55;;;;;;;15.82;11.98;;;10.20;99.90;;;;;;5070594;28;20131;-29
2022/10/04 04:13:51;;;;;;;21.10;13.07;;;10.20;99.90;;;;;;5073264;28;20044;-29
2022/10/04 04:16:24;;;;;;;15.48;12.38;;;10.10;99.90;;;;;;5060963;28;20044;-29
2022/10/04 04:18:52;;;;;;;17.27;13.00;;;10.10;99.90;;;;;;5074495;28;20048;-29
2022/10/04 04:21:22;;;;;;;16.60;12.45;;;10.00;99.90;;;;;;5072241;28;20375;-29
2022/10/04 04:24:13;;;;;;;20.15;14.80;;;10.00;99.90;;;;;;5075748;28;20036;-29
2022/10/04 04:26:47;;;;;;;20.08;15.77;;;9.90;99.90;;;;;;5061048;28;20062;-28
2022/10/04 04:29:21;;;;;;;16.45;13.45;;;9.80;99.90;;;;;;5067377;28;20474;-29
2022/10/04 04:32:17;;;;;;;16.85;14.70;;;9.80;99.90;;;;;;5075371;28;20043;-29
2022/10/04 04:35:06;;;;;;;18.58;13.15;;;9.80;99.90;;;;;;5068865;28;20055;-29
2022/10/04 04:37:34;;;;;;;18.27;14.20;;;9.80;99.90;;;;;;5073840;28;20024;-29
2022/10/04 04:40:20;;;;;;;19.08;14.13;;;9.70;99.90;;;;;;5072648;28;20572;-29
2022/10/04 04:42:48;;;;;;;16.95;15.25;;;9.70;99.90;;;;;;5070598;28;20032;-29
2022/10/04 04:45:24;;;;;;;20.48;15.68;;;9.70;99.90;;;;;;5071914;28;20040;-29
2022/10/04 04:47:52;;;;;;;19.65;15.10;;;9.70;99.90;;;;;;5071708;28;20036;-29
2022/10/04 04:51:03;;;;;;;18.95;16.50;;;9.70;99.90;;;;;;5068760;28;20040;-29
2022/10/04 04:53:29;;;;;;;17.42;15.57;;;9.70;99.90;;;;;;5067221;28;20058;-29
2022/10/04 04:56:01;;;;;;;19.05;16.25;;;9.60;99.90;;;;;;5069606;28;20047;-29
2022/10/04 04:58:34;;;;;;;22.20;16.85;;;9.60;99.90;;;;;;5072625;28;20039;-29
2022/10/04 05:01:06;;;;;;;23.35;18.17;;;9.60;99.90;;;;;;5073710;28;20051;-29
2022/10/04 05:03:33;;;;;;;21.00;17.23;;;9.70;99.90;;;;;;5070156;28;20435;-29
2022/10/04 05:06:03;;;;;;;18.67;16.25;;;9.60;99.90;;;;;;5070051;28;20039;-29
2022/10/04 05:08:31;;;;;;;20.83;16.73;;;9.70;99.90;;;;;;5050364;28;20040;-29
2022/10/04 05:10:57;;;;;;;17.88;15.98;;;9.60;99.90;;;;;;5072670;28;20036;-29
2022/10/04 05:13:39;;;;;;;26.65;21.40;;;9.60;99.90;;;;;;5077353;28;20035;-29
2022/10/04 05:16:13;;;;;;;21.83;17.35;;;9.60;99.90;;;;;;5075150;28;20241;-29
2022/10/04 05:18:39;;;;;;;19.73;16.17;;;9.70;99.90;;;;;;5076931;28;20032;-29
2022/10/04 05:21:23;;;;;;;23.33;19.45;;;9.70;99.90;;;;;;5060360;28;20044;-29
2022/10/04 05:23:50;;;;;;;22.93;18.43;;;9.70;99.90;;;;;;5073237;28;20115;-29
2022/10/04 05:26:25;;;;;;;30.58;22.73;;;9.80;99.90;;;;;;5073878;28;20284;-29
2022/10/04 05:28:50;;;;;;;27.73;21.30;;;9.80;99.90;;;;;;5075686;28;20119;-28
2022/10/04 05:31:31;;;;;;;29.58;22.80;;;9.90;99.90;;;;;;5076428;28;20072;-28
2022/10/04 05:33:57;;;;;;;26.05;19.52;;;9.90;99.90;;;;;;5072014;28;20070;-30
2022/10/04 05:36:34;;;;;;;24.63;19.73;;;9.90;99.90;;;;;;5073391;28;20048;-29
2022/10/04 05:39:32;;;;;;;22.25;17.17;;;9.90;99.90;;;;;;5071522;28;20071;-29
2022/10/04 05:42:18;;;;;;;22.70;17.95;;;9.80;99.90;;;;;;5063618;28;20090;-29
2022/10/04 05:44:53;;;;;;;26.13;18.77;;;9.80;99.90;;;;;;5083669;28;20383;-29
2022/10/04 05:47:23;;;;;;;22.65;17.70;;;9.70;99.90;;;;;;5060708;28;20036;-27
2022/10/04 05:49:52;;;;;;;23.30;18.85;;;9.60;99.90;;;;;;5067479;28;20036;-27
2022/10/04 05:52:35;;;;;;;23.00;19.15;;;9.60;99.90;;;;;;5071256;28;20063;-27
2022/10/04 05:55:27;;;;;;;21.70;17.27;;;9.50;99.90;;;;;;5065448;28;20055;-26
2022/10/04 05:58:17;;;;;;;17.48;15.63;;;9.50;99.90;;;;;;5067177;28;20070;-27
2022/10/04 06:01:07;;;;;;;19.27;16.23;;;9.40;99.90;;;;;;5070342;28;20443;-27
2022/10/04 06:03:42;;;;;;;24.83;18.73;;;9.40;99.90;;;;;;5050780;28;20101;-27
2022/10/04 06:06:37;;;;;;;24.92;19.63;;;9.40;99.90;;;;;;5054545;28;20573;-27
2022/10/04 06:09:30;;;;;;;28.85;21.40;;;9.40;99.90;;;;;;5062849;28;20049;-26
2022/10/04 06:12:02;;;;;;;21.90;17.77;;;9.50;99.90;;;;;;5065071;28;20090;-26
2022/10/04 06:14:50;;;;;;;32.90;26.30;;;9.50;99.90;;;;;;5070959;28;20079;-27
2022/10/04 06:17:41;;;;;;;28.75;23.42;;;9.60;99.90;;;;;;5074247;28;20416;-27
2022/10/04 06:20:29;;;;;;;28.45;20.83;;;9.60;99.90;;;;;;5072459;28;20119;-26
2022/10/04 06:22:59;;;;;;;38.22;26.77;;;9.70;99.90;;;;;;5047226;28;20402;-26
2022/10/04 06:25:28;;;;;;;27.67;23.30;;;9.70;99.90;;;;;;5089332;28;20032;-27
2022/10/04 06:28:18;;;;;;;29.77;22.58;;;9.70;99.90;;;;;;5068209;28;20036;-27
2022/10/04 06:31:21;;;;;;;29.30;23.55;;;9.80;99.90;;;;;;5065731;28;20032;-26
2022/10/04 06:34:18;;;;;;;26.77;21.52;;;9.90;99.90;;;;;;5056132;28;20163;-27
2022/10/04 06:37:05;;;;;;;29.77;23.13;;;9.90;99.90;;;;;;5069326;28;20090;-26
2022/10/04 06:39:48;;;;;;;27.50;23.30;;;10.00;99.90;;;;;;5066575;28;20043;-27
2022/10/04 06:42:33;;;;;;;26.40;21.50;;;10.00;99.90;;;;;;5075084;28;20044;-27
2022/10/04 06:45:20;;;;;;;29.83;23.40;;;10.00;99.90;;;;;;5051305;28;20052;-27
2022/10/04 06:48:01;;;;;;;24.15;21.55;;;10.00;99.90;;;;;;5064292;28;20505;-27
2022/10/04 06:50:40;;;;;;;27.45;22.75;;;10.00;99.90;;;;;;5075561;28;20047;-27
2022/10/04 06:53:06;;;;;;;30.13;22.85;;;10.10;99.90;;;;;;5093921;28;20044;-28
2022/10/04 06:55:54;;;;;;;25.85;21.35;;;10.10;99.90;;;;;;5060562;28;20043;-28
2022/10/04 06:58:45;;;;;;;30.80;23.08;;;10.20;99.90;;;;;;5077170;28;20067;-28
2022/10/04 07:01:31;;;;;;;26.17;21.30;;;10.20;99.90;;;;;;5067410;28;20070;-28
2022/10/04 07:04:16;;;;;;;27.55;24.27;;;10.30;99.90;;;;;;5086697;28;20036;-28
2022/10/04 07:07:25;;;;;;;29.80;23.90;;;10.30;99.90;;;;;;5072797;28;20028;-28
2022/10/04 07:10:19;;;;;;;29.33;23.05;;;10.40;99.90;;;;;;5067662;28;20443;-28
2022/10/04 07:13:32;;;;;;;34.08;25.95;;;10.50;99.90;;;;;;5068563;28;20040;-28
2022/10/04 07:16:09;;;;;;;31.25;23.73;;;10.60;99.90;;;;;;5058470;28;20532;-29
2022/10/04 07:18:57;;;;;;;28.33;22.55;;;10.80;99.90;;;;;;5068716;28;20440;-29
2022/10/04 07:21:26;;;;;;;29.40;23.25;;;11.00;99.90;;;;;;5044957;28;20052;-29
2022/10/04 07:24:00;;;;;;;27.42;21.95;;;11.10;99.90;;;;;;5069811;28;20489;-29
2022/10/04 07:26:44;;;;;;;29.63;23.73;;;11.30;99.90;;;;;;5075306;28;20035;-29
2022/10/04 07:29:29;;;;;;;28.08;21.77;;;11.50;99.90;;;;;;5074587;28;20116;-29
2022/10/04 07:32:04;;;;;;;22.60;20.20;;;11.70;99.90;;;;;;5069928;28;20067;-29
2022/10/04 07:34:50;;;;;;;27.95;20.65;;;11.80;99.90;;;;;;5067128;28;20039;-29
2022/10/04 07:37:17;;;;;;;22.35;19.58;;;12.00;99.90;;;;;;5072216;28;20028;-29
2022/10/04 07:39:59;;;;;;;24.70;18.58;;;12.10;99.90;;;;;;5060049;28;20036;-29
2022/10/04 07:42:30;;;;;;;25.17;18.63;;;12.10;99.90;;;;;;5071598;28;20511;-29
2022/10/04 07:45:10;;;;;;;24.58;17.90;;;12.20;99.90;;;;;;5060978;28;20043;-29
2022/10/04 07:47:36;;;;;;;20.60;16.50;;;12.20;99.90;;;;;;5067712;28;20043;-29
2022/10/04 07:50:25;;;;;;;25.92;17.48;;;12.30;99.90;;;;;;5063364;28;20040;-29
2022/10/04 07:53:06;;;;;;;17.50;15.65;;;12.30;99.90;;;;;;5069240;28;20044;-29
2022/10/04 07:55:54;;;;;;;22.85;16.00;;;12.30;99.90;;;;;;5065530;28;20067;-29
2022/10/04 07:58:22;;;;;;;20.25;16.20;;;12.30;99.90;;;;;;5064003;28;20032;-29
2022/10/04 08:01:00;;;;;;;21.40;14.23;;;12.50;99.90;;;;;;5057850;28;20036;-29
2022/10/04 08:04:03;;;;;;;21.02;14.05;;;13.00;99.90;;;;;;5059671;28;20096;-29
2022/10/04 08:06:38;;;;;;;13.93;12.27;;;13.90;99.90;;;;;;5070731;28;20063;-29
2022/10/04 08:09:23;;;;;;;16.83;12.60;;;14.50;99.90;;;;;;5070832;28;20477;-29
2022/10/04 08:12:16;;;;;;;15.00;12.13;;;15.00;99.90;;;;;;5063601;28;20032;-30
2022/10/04 08:15:23;;;;;;;13.73;11.23;;;15.70;99.90;;;;;;5064231;28;20032;-29
2022/10/04 08:18:00;;;;;;;14.50;10.32;;;16.30;99.90;;;;;;5004612;28;20038;-29
2022/10/04 08:20:53;;;;;;;12.35;10.60;;;16.60;99.90;;;;;;4990466;28;20037;-30
2022/10/04 08:23:40;;;;;;;10.63;9.13;;;16.90;99.90;;;;;;5043216;28;20102;-30
2022/10/04 08:26:27;;;;;;;12.48;10.13;;;17.10;99.90;;;;;;5070900;28;20501;-30
2022/10/04 08:32:08;;;;;;;11.20;9.38;;;17.90;99.90;;;;;;5080857;28;20044;-30
2022/10/04 08:34:37;;;;;;;11.23;8.55;;;17.80;99.90;;;;;;5067372;28;20090;-30
2022/10/04 08:37:45;;;;;;;10.55;9.40;;;17.80;99.90;;;;;;5067970;28;20063;-30
2022/10/04 08:40:42;;;;;;;14.75;9.27;;;17.50;99.90;;;;;;4969486;28;20052;-30
2022/10/04 08:43:33;;;;;;;14.65;9.88;;;17.10;99.90;;;;;;5074271;28;20401;-30
2022/10/04 08:46:20;;;;;;;10.48;8.57;;;16.90;99.90;;;;;;5070961;28;20046;-30
2022/10/04 08:49:07;;;;;;;12.43;8.65;;;16.70;99.90;;;;;;5087629;28;20032;-30
2022/10/04 08:51:54;;;;;;;11.80;8.07;;;16.80;99.90;;;;;;5074291;28;20051;-30
2022/10/04 08:54:42;;;;;;;8.45;7.35;;;17.30;99.90;;;;;;5070912;28;20517;-30
2022/10/04 08:57:36;;;;;;;9.95;7.97;;;17.10;99.90;;;;;;5062158;28;20098;-30
2022/10/04 09:00:20;;;;;;;9.07;8.10;;;17.40;99.90;;;;;;5059434;28;20160;-30
2022/10/04 09:03:10;;;;;;;12.55;8.20;;;17.40;99.90;;;;;;5058907;28;20466;-30
2022/10/04 09:06:08;;;;;;;11.35;8.35;;;17.20;99.90;;;;;;5059274;28;20063;-30
2022/10/04 09:08:52;;;;;;;10.27;7.95;;;17.10;99.90;;;;;;5070303;28;20515;-30
2022/10/04 09:12:02;;;;;;;12.20;8.57;;;17.10;99.90;;;;;;5074527;28;20036;-30
2022/10/04 09:14:56;;;;;;;9.80;7.78;;;17.80;99.90;;;;;;5073359;28;20044;-30
2022/10/04 09:17:57;;;;;;;12.23;8.32;;;18.40;99.90;;;;;;5068535;28;20506;-30
2022/10/04 09:20:39;;;;;;;11.52;8.18;;;18.60;99.90;;;;;;5074595;28;20863;-30
2022/10/04 09:23:14;;;;;;;10.13;8.05;;;18.60;99.90;;;;;;5058957;28;20072;-29
2022/10/04 09:25:51;;;;;;;12.32;8.80;;;18.80;99.90;;;;;;5071380;28;20384;-29
2022/10/04 09:28:19;;;;;;;10.43;7.97;;;18.90;99.90;;;;;;5074709;28;20033;-29
2022/10/04 09:31:11;;;;;;;10.80;8.10;;;19.20;99.90;;;;;;5063202;28;20032;-30
2022/10/04 09:34:03;;;;;;;9.70;7.90;;;19.50;99.90;;;;;;5072554;28;20036;-29
2022/10/04 09:36:51;;;;;;;9.38;8.30;;;19.80;99.90;;;;;;5039942;28;20097;-29
2022/10/04 09:39:26;;;;;;;11.35;7.43;;;19.90;99.90;;;;;;5062935;28;20043;-29
2022/10/04 09:42:11;;;;;;;10.48;7.40;;;20.40;99.90;;;;;;5089910;28;20044;-29
2022/10/04 09:44:57;;;;;;;9.30;7.10;;;20.50;99.90;;;;;;5070471;28;20512;-30
2022/10/04 09:47:36;;;;;;;9.98;7.38;;;20.80;99.90;;;;;;5077776;28;20481;-29
2022/10/04 09:50:23;;;;;;;7.90;6.78;;;20.80;99.90;;;;;;5086456;28;20122;-29
2022/10/04 09:53:07;;;;;;;10.52;7.50;;;21.10;99.90;;;;;;5078536;28;20045;-30
2022/10/04 09:56:09;;;;;;;9.40;7.30;;;20.80;99.90;;;;;;5073275;28;20500;-30
2022/10/04 09:58:45;;;;;;;11.23;7.30;;;21.10;99.90;;;;;;4974001;28;20405;-30
2022/10/04 10:01:23;;;;;;;8.15;7.35;;;21.30;99.90;;;;;;5057003;28;20048;-30
2022/10/04 10:04:34;;;;;;;8.18;6.70;;;21.40;99.90;;;;;;5077251;28;20091;-30
2022/10/04 10:07:15;;;;;;;8.23;6.47;;;21.40;99.90;;;;;;5068883;28;20078;-30
2022/10/04 10:16:33;;;;;;;9.32;6.50;;;21.80;99.90;;;;;;5090018;28;20524;-30
2022/10/04 10:19:20;;;;;;;8.23;5.78;;;21.90;99.90;;;;;;5071964;28;20043;-30
2022/10/04 10:22:04;;;;;;;7.78;5.60;;;22.30;99.70;;;;;;5075482;28;20040;-30
2022/10/04 10:24:36;;;;;;;6.40;5.80;;;22.50;99.90;;;;;;5094470;28;20044;-30
2022/10/04 10:27:23;;;;;;;7.85;5.47;;;22.60;99.90;;;;;;5041764;28;20506;-30
2022/10/04 10:30:26;;;;;;;8.65;5.97;;;22.60;99.50;;;;;;5071422;28;20464;-30
2022/10/04 10:33:21;;;;;;;8.20;5.80;;;22.90;92.10;;;;;;5057592;28;20402;-28
2022/10/04 10:36:20;;;;;;;8.43;5.85;;;23.30;92.20;;;;;;5063856;28;20040;-28
2022/10/04 10:39:13;;;;;;;7.00;5.40;;;23.40;90.70;;;;;;5077022;28;20063;-28
2022/10/04 10:41:48;;;;;;;8.82;6.20;;;23.40;92.20;;;;;;5069775;28;20032;-28
2022/10/04 10:44:25;;;;;;;7.55;5.20;;;23.40;94.60;;;;;;5095034;28;20083;-28
2022/10/04 10:47:11;;;;;;;7.38;5.63;;;23.90;80.00;;;;;;5078092;28;20051;-28
2022/10/04 10:49:49;;;;;;;7.40;5.43;;;24.20;78.10;;;;;;5065843;28;20541;-29
2022/10/04 10:52:48;;;;;;;7.45;6.22;;;24.50;77.70;;;;;;5066229;28;20039;-30
2022/10/04 10:55:28;;;;;;;8.60;5.78;;;24.50;64.80;;;;;;5070828;28;20035;-30
2022/10/04 10:58:32;;;;;;;7.78;5.80;;;24.40;76.40;;;;;;5057803;28;20032;-30
2022/10/04 11:01:27;;;;;;;7.05;5.07;;;24.60;65.80;;;;;;5061698;28;20087;-30
2022/10/04 11:04:20;;;;;;;6.13;5.50;;;24.50;70.70;;;;;;5039317;28;20048;-30
2022/10/04 11:07:15;;;;;;;7.88;5.43;;;24.50;75.60;;;;;;5068036;28;20102;-30
2022/10/04 11:09:53;;;;;;;8.43;5.03;;;24.80;60.60;;;;;;5061718;28;20040;-30
2022/10/04 11:12:40;;;;;;;7.03;5.15;;;24.70;68.30;;;;;;5064733;28;20036;-30
2022/10/04 11:15:43;;;;;;;9.35;5.40;;;25.10;68.90;;;;;;5067761;28;20034;-30
2022/10/04 11:18:57;;;;;;;6.78;5.05;;;24.70;59.60;;;;;;5068776;28;20063;-30
2022/10/04 11:21:28;;;;;;;8.70;5.05;;;23.80;62.50;;;;;;4968629;28;20065;-30
2022/10/04 11:24:33;;;;;;;6.53;5.10;;;23.10;78.20;;;;;;5064122;28;20131;-29
2022/10/04 11:27:30;;;;;;;7.22;4.68;;;22.60;78.40;;;;;;4974299;28;20038;-30
2022/10/04 11:30:08;;;;;;;5.72;4.53;;;22.50;88.80;;;;;;5046360;28;20063;-30
2022/10/04 11:32:37;;;;;;;7.13;4.20;;;22.30;84.00;;;;;;5061771;28;20032;-30
2022/10/04 11:35:21;;;;;;;8.02;3.85;;;22.20;90.00;;;;;;5072738;28;20047;-30
2022/10/04 11:38:04;;;;;;;7.80;3.92;;;22.20;88.00;;;;;;5057255;28;20036;-29
2022/10/04 11:40:39;;;;;;;;;;;22.50;76.90;;;;;;5072562;28;20044;-29
2022/10/04 11:43:40;;;;;;;6.85;3.50;;;22.80;68.80;;;;;;5061802;28;19927;-30
2022/10/04 11:46:34;;;;;;;5.57;3.40;;;23.40;63.90;;;;;;5048921;28;20040;-29
2022/10/04 11:49:18;;;;;;;5.85;3.15;;;23.90;65.50;;;;;;5091652;28;20409;-30
2022/10/04 11:52:21;;;;;;;9.40;4.00;;;24.60;61.60;;;;;;5068951;28;20040;-30
2022/10/04 11:55:09;;;;;;;6.13;3.20;;;25.20;58.50;;;;;;5057953;28;20044;-30
2022/10/04 11:57:52;;;;;;;5.82;3.38;;;25.30;54.00;;;;;;5069569;28;20485;-30
2022/10/04 12:00:23;;;;;;;7.63;4.13;;;25.60;50.80;;;;;;5058279;28;20397;-30
2022/10/04 12:03:10;;;;;;;6.65;3.90;;;25.20;52.30;;;;;;5056780;28;20037;-30
2022/10/04 12:05:49;;;;;;;5.57;3.80;;;24.60;51.70;;;;;;5057101;28;20081;-29
2022/10/04 12:08:53;;;;;;;8.75;4.63;;;24.40;54.50;;;;;;5063963;28;20116;-30
2022/10/04 12:15:10;;;;;;;8.10;4.18;;;24.50;53.90;;;;;;4979043;28;20039;-30
2022/10/04 12:18:14;;;;;;;6.80;3.97;;;25.30;55.30;;;;;;5050731;28;20040;-30
2022/10/04 12:21:11;;;;;;;9.55;5.15;;;26.00;51.00;;;;;;5070696;28;20042;-30
2022/10/04 12:23:58;;;;;;;6.82;4.82;;;25.90;50.90;;;;;;5062338;28;20054;-30
2022/10/04 12:37:48;;;;;;;8.77;5.30;;;26.20;52.10;;;;;;5086273;28;20073;-32
2022/10/04 12:40:20;;;;;;;7.50;4.80;;;26.80;52.20;;;;;;5047797;28;20039;-33
2022/10/04 12:43:03;;;;;;;5.88;3.90;;;27.60;50.90;;;;;;5047337;28;20037;-32
2022/10/04 12:45:47;;;;;;;6.70;4.10;;;28.20;49.70;;;;;;5071646;28;20515;-31
2022/10/04 12:48:31;;;;;;;6.70;4.22;;;28.40;48.40;;;;;;5069237;28;20028;-33
2022/10/04 12:51:36;;;;;;;6.53;4.28;;;28.50;46.20;;;;;;5048577;28;20032;-32
2022/10/04 12:54:39;;;;;;;4.93;4.18;;;28.90;45.60;;;;;;5056814;28;20036;-31
2022/10/04 12:57:23;;;;;;;5.45;4.38;;;29.40;42.80;;;;;;5066671;28;20115;-31
2022/10/04 13:00:07;;;;;;;6.85;4.60;;;29.00;45.00;;;;;;5070795;28;20043;-31
2022/10/04 13:02:53;;;;;;;6.78;4.43;;;28.30;45.40;;;;;;5066199;28;20051;-32
2022/10/04 13:05:26;;;;;;;6.47;4.22;;;28.20;45.10;;;;;;5062170;28;20132;-31
2022/10/04 13:08:02;;;;;;;6.00;4.00;;;28.30;46.10;;;;;;5071442;28;20036;-34
2022/10/04 13:10:46;;;;;;;4.57;4.00;;;28.70;45.10;;;;;;5065064;28;20052;-33
2022/10/04 13:13:37;;;;;;;5.82;4.68;;;28.70;44.90;;;;;;5065977;28;20493;-33
2022/10/04 13:16:08;;;;;;;4.30;3.63;;;28.40;43.70;;;;;;5066913;28;20043;-32
2022/10/04 13:18:59;;;;;;;6.00;4.30;;;28.20;44.50;;;;;;5067843;28;20183;-31
2022/10/04 13:21:43;;;;;;;5.00;3.53;;;28.00;43.20;;;;;;5071850;28;20040;-33
2022/10/04 13:24:23;;;;;;;6.28;4.13;;;27.90;44.70;;;;;;5072457;28;20055;-32
2022/10/04 13:27:02;;;;;;;5.82;3.88;;;28.00;44.70;;;;;;5067635;28;20424;-31
2022/10/04 13:30:01;;;;;;;4.80;3.80;;;28.00;44.60;;;;;;5061793;28;20033;-33
2022/10/04 13:32:41;;;;;;;7.57;4.82;;;27.80;42.30;;;;;;5074113;28;20028;-32
2022/10/04 13:35:16;;;;;;;4.68;4.05;;;26.40;43.90;;;;;;5065991;28;20036;-31
2022/10/04 13:37:48;;;;;;;5.25;3.83;;;25.20;46.20;;;;;;5074979;28;20032;-31
2022/10/04 13:40:36;;;;;;;6.63;4.65;;;24.80;48.20;;;;;;5073342;28;20051;-30
2022/10/04 13:43:13;;;;;;;7.85;4.80;;;24.70;49.00;;;;;;5071294;28;20040;-30
2022/10/04 13:45:59;;;;;;;5.88;4.80;;;24.50;49.40;;;;;;5066873;28;20028;-32
2022/10/04 13:48:30;;;;;;;6.10;4.82;;;24.00;50.20;;;;;;5068485;28;20196;-29
2022/10/04 13:51:02;;;;;;;6.75;5.45;;;23.80;51.80;;;;;;5069477;28;20567;-30
2022/10/04 13:57:05;;;;;;;7.35;4.90;;;25.40;51.90;;;;;;5085841;28;20055;-32
2022/10/04 14:00:00;;;;;;;6.38;5.65;;;26.60;48.90;;;;;;5070100;28;20071;-33
2022/10/04 14:02:38;;;;;;;8.25;5.38;;;26.90;47.50;;;;;;5037165;28;20055;-32
2022/10/04 14:05:23;;;;;;;9.48;5.80;;;27.10;47.60;;;;;;5074834;28;20089;-31
2022/10/04 14:08:13;;;;;;;7.47;5.35;;;26.80;45.80;;;;;;5065672;28;20039;-31
2022/10/04 14:11:06;;;;;;;7.40;5.45;;;27.00;46.80;;;;;;5073277;28;20028;-30
2022/10/04 14:13:56;;;;;;;8.05;5.38;;;27.00;46.20;;;;;;5075289;28;20028;-31